sensor_id;sensor_type;location;lat;lon;timestamp;pressure;altitude;pressure_sealevel;temperature;humidity
9784;BME280;4931;44.874;-1.092;2023-08-08T00:01:22;101748.94;;;16.19;100.00
9784;BME280;4931;44.874;-1.092;2023-08-08T00:03:48;101746.84;;;16.06;100.00
9784;BME280;4931;44.874;-1.092;2023-08-08T00:06:13;101746.03;;;16.05;100.00
9784;BME280;4931;44.874;-1.092;2023-08-08T00:08:39;101742.25;;;15.96;100.00
9784;BME280;4931;44.874;-1.092;2023-08-08T00:11:05;101743.25;;;15.76;100.00
9784;BME280;4931;44.874;-1.092;2023-08-08T00:13:31;101734.66;;;15.77;100.00
9784;BME280;4931;44.874;-1.092;2023-08-08T00:15:56;101744.50;;;15.89;100.00
9784;BME280;4931;44.874;-1.092;2023-08-08T00:18:22;101745.69;;;15.83;100.00
9784;BME280;4931;44.874;-1.092;2023-08-08T00:20:47;101744.88;;;15.77;100.00
9784;BME280;4931;44.874;-1.092;2023-08-08T00:23:13;101741.69;;;15.65;100.00
9784;BME280;4931;44.874;-1.092;2023-08-08T00:25:38;101739.25;;;15.58;100.00
9784;BME280;4931;44.874;-1.092;2023-08-08T00:28:04;101724.31;;;15.59;100.00
9784;BME280;4931;44.874;-1.092;2023-08-08T00:30:29;101722.63;;;15.63;100.00
9784;BME280;4931;44.874;-1.092;2023-08-08T00:32:55;101731.09;;;15.72;100.00
9784;BME280;4931;44.874;-1.092;2023-08-08T00:35:21;101727.81;;;15.70;100.00
9784;BME280;4931;44.874;-1.092;2023-08-08T00:37:48;101734.66;;;15.77;100.00
9784;BME280;4931;44.874;-1.092;2023-08-08T00:40:14;101732.53;;;15.69;100.00
9784;BME280;4931;44.874;-1.092;2023-08-08T00:42:39;101728.16;;;15.63;100.00
9784;BME280;4931;44.874;-1.092;2023-08-08T00:45:05;101737.63;;;15.52;100.00
9784;BME280;4931;44.874;-1.092;2023-08-08T00:47:32;101736.25;;;15.54;100.00
9784;BME280;4931;44.874;-1.092;2023-08-08T00:49:58;101727.72;;;15.46;100.00
9784;BME280;4931;44.874;-1.092;2023-08-08T00:52:24;101731.91;;;15.43;100.00
9784;BME280;4931;44.874;-1.092;2023-08-08T00:54:51;101721.13;;;15.41;100.00
9784;BME280;4931;44.874;-1.092;2023-08-08T00:57:18;101725.94;;;15.31;100.00
9784;BME280;4931;44.874;-1.092;2023-08-08T00:59:43;101723.41;;;15.34;100.00
9784;BME280;4931;44.874;-1.092;2023-08-08T01:02:09;101720.16;;;15.27;100.00
9784;BME280;4931;44.874;-1.092;2023-08-08T01:04:34;101715.28;;;15.14;100.00
9784;BME280;4931;44.874;-1.092;2023-08-08T01:07:28;101712.47;;;15.19;100.00
9784;BME280;4931;44.874;-1.092;2023-08-08T01:10:16;101716.84;;;15.25;100.00
9784;BME280;4931;44.874;-1.092;2023-08-08T01:12:48;101715.31;;;15.08;100.00
9784;BME280;4931;44.874;-1.092;2023-08-08T01:15:16;101719.16;;;15.13;100.00
9784;BME280;4931;44.874;-1.092;2023-08-08T01:17:43;101721.31;;;15.21;100.00
9784;BME280;4931;44.874;-1.092;2023-08-08T01:20:12;101710.38;;;15.05;100.00
9784;BME280;4931;44.874;-1.092;2023-08-08T01:25:16;101721.44;;;15.00;100.00
9784;BME280;4931;44.874;-1.092;2023-08-08T01:27:43;101724.75;;;15.02;100.00
9784;BME280;4931;44.874;-1.092;2023-08-08T01:30:09;101712.38;;;14.94;100.00
9784;BME280;4931;44.874;-1.092;2023-08-08T01:32:34;101715.69;;;14.91;100.00
9784;BME280;4931;44.874;-1.092;2023-08-08T01:35:00;101711.81;;;14.92;100.00
9784;BME280;4931;44.874;-1.092;2023-08-08T01:37:30;101724.81;;;14.97;100.00
9784;BME280;4931;44.874;-1.092;2023-08-08T01:39:59;101710.19;;;14.86;100.00
9784;BME280;4931;44.874;-1.092;2023-08-08T01:42:27;101711.03;;;14.87;100.00
9784;BME280;4931;44.874;-1.092;2023-08-08T01:44:53;101719.81;;;14.94;100.00
9784;BME280;4931;44.874;-1.092;2023-08-08T01:47:19;101717.69;;;14.81;100.00
9784;BME280;4931;44.874;-1.092;2023-08-08T01:49:45;101703.16;;;14.65;100.00
9784;BME280;4931;44.874;-1.092;2023-08-08T01:52:10;101711.69;;;14.63;100.00
9784;BME280;4931;44.874;-1.092;2023-08-08T01:54:36;101707.31;;;14.57;100.00
9784;BME280;4931;44.874;-1.092;2023-08-08T01:57:01;101711.75;;;14.53;100.00
9784;BME280;4931;44.874;-1.092;2023-08-08T01:59:27;101687.50;;;14.44;100.00
9784;BME280;4931;44.874;-1.092;2023-08-08T02:01:52;101701.03;;;14.46;100.00
9784;BME280;4931;44.874;-1.092;2023-08-08T02:04:19;101713.63;;;14.68;100.00
9784;BME280;4931;44.874;-1.092;2023-08-08T02:06:45;101694.03;;;14.59;100.00
9784;BME280;4931;44.874;-1.092;2023-08-08T02:09:10;101697.94;;;14.58;100.00
9784;BME280;4931;44.874;-1.092;2023-08-08T02:11:36;101702.91;;;14.51;100.00
9784;BME280;4931;44.874;-1.092;2023-08-08T02:14:01;101703.75;;;14.51;100.00
9784;BME280;4931;44.874;-1.092;2023-08-08T02:16:27;101703.50;;;14.48;100.00
9784;BME280;4931;44.874;-1.092;2023-08-08T02:18:52;101718.66;;;14.50;100.00
9784;BME280;4931;44.874;-1.092;2023-08-08T02:21:18;101703.22;;;14.44;100.00
9784;BME280;4931;44.874;-1.092;2023-08-08T02:23:43;101705.16;;;14.49;100.00
9784;BME280;4931;44.874;-1.092;2023-08-08T02:26:09;101702.44;;;14.33;100.00
9784;BME280;4931;44.874;-1.092;2023-08-08T02:28:35;101709.88;;;14.38;100.00
9784;BME280;4931;44.874;-1.092;2023-08-08T02:31:00;101695.31;;;14.22;100.00
9784;BME280;4931;44.874;-1.092;2023-08-08T02:33:25;101710.72;;;14.38;100.00
9784;BME280;4931;44.874;-1.092;2023-08-08T02:35:51;101700.56;;;14.18;100.00
9784;BME280;4931;44.874;-1.092;2023-08-08T02:38:16;101698.03;;;14.32;100.00
9784;BME280;4931;44.874;-1.092;2023-08-08T02:40:42;101708.25;;;14.37;100.00
9784;BME280;4931;44.874;-1.092;2023-08-08T02:43:08;101691.44;;;14.23;100.00
9784;BME280;4931;44.874;-1.092;2023-08-08T02:45:36;101686.53;;;14.09;100.00
9784;BME280;4931;44.874;-1.092;2023-08-08T02:48:01;101690.13;;;14.05;100.00
9784;BME280;4931;44.874;-1.092;2023-08-08T02:50:27;101692.06;;;14.09;100.00
9784;BME280;4931;44.874;-1.092;2023-08-08T02:52:52;101667.88;;;13.81;100.00
9784;BME280;4931;44.874;-1.092;2023-08-08T02:55:18;101662.94;;;13.67;100.00
9784;BME280;4931;44.874;-1.092;2023-08-08T02:57:43;101666.50;;;13.73;100.00
9784;BME280;4931;44.874;-1.092;2023-08-08T03:00:09;101673.34;;;13.91;100.00
9784;BME280;4931;44.874;-1.092;2023-08-08T03:02:36;101682.72;;;13.90;100.00
9784;BME280;4931;44.874;-1.092;2023-08-08T03:05:02;101677.78;;;13.87;100.00
9784;BME280;4931;44.874;-1.092;2023-08-08T03:07:27;101670.06;;;13.68;100.00
9784;BME280;4931;44.874;-1.092;2023-08-08T03:09:53;101655.78;;;13.56;100.00
9784;BME280;4931;44.874;-1.092;2023-08-08T03:12:18;101667.91;;;13.60;100.00
9784;BME280;4931;44.874;-1.092;2023-08-08T03:14:44;101661.28;;;13.71;100.00
9784;BME280;4931;44.874;-1.092;2023-08-08T03:17:09;101664.00;;;13.82;100.00
9784;BME280;4931;44.874;-1.092;2023-08-08T03:19:35;101646.66;;;13.66;100.00
9784;BME280;4931;44.874;-1.092;2023-08-08T03:22:00;101649.16;;;13.72;100.00
9784;BME280;4931;44.874;-1.092;2023-08-08T03:24:26;101660.19;;;13.72;100.00
9784;BME280;4931;44.874;-1.092;2023-08-08T03:26:52;101660.19;;;13.72;100.00
9784;BME280;4931;44.874;-1.092;2023-08-08T03:29:17;101665.13;;;13.75;100.00
9784;BME280;4931;44.874;-1.092;2023-08-08T03:31:43;101661.78;;;13.73;100.00
9784;BME280;4931;44.874;-1.092;2023-08-08T03:34:08;101662.38;;;13.60;100.00
9784;BME280;4931;44.874;-1.092;2023-08-08T03:36:34;101670.13;;;13.37;100.00
9784;BME280;4931;44.874;-1.092;2023-08-08T03:38:59;101669.00;;;13.23;100.00
9784;BME280;4931;44.874;-1.092;2023-08-08T03:41:24;101670.66;;;13.03;100.00
9784;BME280;4931;44.874;-1.092;2023-08-08T03:43:50;101667.34;;;13.06;100.00
9784;BME280;4931;44.874;-1.092;2023-08-08T03:46:15;101660.72;;;13.07;100.00
9784;BME280;4931;44.874;-1.092;2023-08-08T03:48:41;101664.59;;;13.17;100.00
9784;BME280;4931;44.874;-1.092;2023-08-08T03:51:06;101670.66;;;13.24;100.00
9784;BME280;4931;44.874;-1.092;2023-08-08T03:53:32;101672.31;;;13.20;100.00
9784;BME280;4931;44.874;-1.092;2023-08-08T03:55:58;101663.50;;;13.12;100.00
9784;BME280;4931;44.874;-1.092;2023-08-08T03:58:23;101644.22;;;13.07;100.00
9784;BME280;4931;44.874;-1.092;2023-08-08T04:00:49;101661.81;;;13.01;100.00
9784;BME280;4931;44.874;-1.092;2023-08-08T04:03:16;101660.16;;;12.85;100.00
9784;BME280;4931;44.874;-1.092;2023-08-08T04:05:45;101658.25;;;12.95;100.00
9784;BME280;4931;44.874;-1.092;2023-08-08T04:08:16;101651.38;;;12.98;100.00
9784;BME280;4931;44.874;-1.092;2023-08-08T04:10:43;101650.81;;;12.81;100.00
9784;BME280;4931;44.874;-1.092;2023-08-08T04:13:09;101660.16;;;12.79;100.00
9784;BME280;4931;44.874;-1.092;2023-08-08T04:15:35;101662.88;;;12.64;100.00
9784;BME280;4931;44.874;-1.092;2023-08-08T04:18:01;101661.50;;;12.61;100.00
9784;BME280;4931;44.874;-1.092;2023-08-08T04:20:26;101666.16;;;12.56;100.00
9784;BME280;4931;44.874;-1.092;2023-08-08T04:22:52;101663.94;;;12.42;100.00
9784;BME280;4931;44.874;-1.092;2023-08-08T04:25:17;101653.44;;;12.39;100.00
9784;BME280;4931;44.874;-1.092;2023-08-08T04:27:43;101665.28;;;12.35;100.00
9784;BME280;4931;44.874;-1.092;2023-08-08T04:30:09;101653.38;;;12.24;100.00
9784;BME280;4931;44.874;-1.092;2023-08-08T04:32:34;101659.47;;;12.31;100.00
9784;BME280;4931;44.874;-1.092;2023-08-08T04:35:00;101667.16;;;12.29;100.00
9784;BME280;4931;44.874;-1.092;2023-08-08T04:37:25;101652.81;;;12.11;100.00
9784;BME280;4931;44.874;-1.092;2023-08-08T04:39:50;101663.03;;;12.26;100.00
9784;BME280;4931;44.874;-1.092;2023-08-08T04:42:16;101662.25;;;12.36;100.00
9784;BME280;4931;44.874;-1.092;2023-08-08T04:44:41;101661.41;;;12.25;100.00
9784;BME280;4931;44.874;-1.092;2023-08-08T04:47:07;101671.31;;;12.32;100.00
9784;BME280;4931;44.874;-1.092;2023-08-08T04:49:32;101658.94;;;12.34;100.00
9784;BME280;4931;44.874;-1.092;2023-08-08T04:51:58;101671.38;;;12.47;100.00
9784;BME280;4931;44.874;-1.092;2023-08-08T04:54:23;101670.00;;;12.55;100.00
9784;BME280;4931;44.874;-1.092;2023-08-08T04:56:49;101669.91;;;12.24;100.00
9784;BME280;4931;44.874;-1.092;2023-08-08T04:59:14;101665.44;;;12.07;100.00
9784;BME280;4931;44.874;-1.092;2023-08-08T05:01:40;101659.88;;;11.97;100.00
9784;BME280;4931;44.874;-1.092;2023-08-08T05:04:05;101667.03;;;11.98;100.00
9784;BME280;4931;44.874;-1.092;2023-08-08T05:06:31;101661.69;;;11.81;100.00
9784;BME280;4931;44.874;-1.092;2023-08-08T05:08:56;101665.28;;;11.87;100.00
9784;BME280;4931;44.874;-1.092;2023-08-08T05:11:22;101668.06;;;11.92;100.00
9784;BME280;4931;44.874;-1.092;2023-08-08T05:13:48;101678.78;;;11.88;100.00
9784;BME280;4931;44.874;-1.092;2023-08-08T05:16:14;101674.13;;;11.89;100.00
9784;BME280;4931;44.874;-1.092;2023-08-08T05:18:39;101666.59;;;11.74;100.00
9784;BME280;4931;44.874;-1.092;2023-08-08T05:21:06;101666.59;;;11.74;100.00
9784;BME280;4931;44.874;-1.092;2023-08-08T05:23:31;101682.88;;;11.81;100.00
9784;BME280;4931;44.874;-1.092;2023-08-08T05:25:57;101663.38;;;11.82;100.00
9784;BME280;4931;44.874;-1.092;2023-08-08T05:28:23;101681.91;;;12.02;100.00
9784;BME280;4931;44.874;-1.092;2023-08-08T05:30:48;101687.97;;;12.09;100.00
9784;BME280;4931;44.874;-1.092;2023-08-08T05:33:14;101678.63;;;12.05;100.00
9784;BME280;4931;44.874;-1.092;2023-08-08T05:35:39;101672.53;;;11.98;100.00
9784;BME280;4931;44.874;-1.092;2023-08-08T05:38:05;101689.63;;;12.05;100.00
9784;BME280;4931;44.874;-1.092;2023-08-08T05:40:30;101683.59;;;12.08;100.00
9784;BME280;4931;44.874;-1.092;2023-08-08T05:42:56;101673.97;;;12.06;100.00
9784;BME280;4931;44.874;-1.092;2023-08-08T05:45:21;101686.34;;;12.08;100.00
9784;BME280;4931;44.874;-1.092;2023-08-08T05:47:47;101691.56;;;12.10;100.00
9784;BME280;4931;44.874;-1.092;2023-08-08T05:50:13;101685.25;;;12.15;100.00
9784;BME280;4931;44.874;-1.092;2023-08-08T05:52:38;101688.09;;;12.35;100.00
9784;BME280;4931;44.874;-1.092;2023-08-08T05:55:04;101683.19;;;12.42;100.00
9784;BME280;4931;44.874;-1.092;2023-08-08T05:57:29;101699.97;;;12.46;100.00
9784;BME280;4931;44.874;-1.092;2023-08-08T05:59:55;101693.13;;;12.59;100.00
9784;BME280;4931;44.874;-1.092;2023-08-08T06:02:20;101688.81;;;12.84;100.00
9784;BME280;4931;44.874;-1.092;2023-08-08T06:04:47;101693.25;;;13.21;100.00
9784;BME280;4931;44.874;-1.092;2023-08-08T06:07:12;101698.78;;;13.41;100.00
9784;BME280;4931;44.874;-1.092;2023-08-08T06:09:38;101694.88;;;13.73;100.00
9784;BME280;4931;44.874;-1.092;2023-08-08T06:12:03;101698.16;;;13.96;100.00
9784;BME280;4931;44.874;-1.092;2023-08-08T06:14:30;101687.66;;;14.03;100.00
9784;BME280;4931;44.874;-1.092;2023-08-08T06:16:56;101684.84;;;14.19;100.00
9784;BME280;4931;44.874;-1.092;2023-08-08T06:19:21;101699.88;;;14.52;100.00
9784;BME280;4931;44.874;-1.092;2023-08-08T06:21:47;101695.13;;;14.63;100.00
9784;BME280;4931;44.874;-1.092;2023-08-08T06:24:12;101701.03;;;14.96;100.00
9784;BME280;4931;44.874;-1.092;2023-08-08T06:26:38;101697.00;;;15.18;100.00
9784;BME280;4931;44.874;-1.092;2023-08-08T06:29:03;101709.59;;;15.34;100.00
9784;BME280;4931;44.874;-1.092;2023-08-08T06:31:29;101689.53;;;15.53;100.00
9784;BME280;4931;44.874;-1.092;2023-08-08T06:33:55;101689.44;;;15.92;100.00
9784;BME280;4931;44.874;-1.092;2023-08-08T06:36:20;101700.47;;;16.22;100.00
9784;BME280;4931;44.874;-1.092;2023-08-08T06:38:46;101702.06;;;16.47;100.00
9784;BME280;4931;44.874;-1.092;2023-08-08T06:41:11;101708.34;;;16.53;100.00
9784;BME280;4931;44.874;-1.092;2023-08-08T06:43:38;101710.03;;;17.11;100.00
9784;BME280;4931;44.874;-1.092;2023-08-08T06:46:04;101713.50;;;17.55;100.00
9784;BME280;4931;44.874;-1.092;2023-08-08T06:48:30;101710.94;;;17.72;100.00
9784;BME280;4931;44.874;-1.092;2023-08-08T06:50:55;101702.19;;;17.98;100.00
9784;BME280;4931;44.874;-1.092;2023-08-08T06:53:21;101701.47;;;18.06;100.00
9784;BME280;4931;44.874;-1.092;2023-08-08T06:55:46;101709.91;;;18.15;100.00
9784;BME280;4931;44.874;-1.092;2023-08-08T06:58:12;101723.94;;;18.61;100.00
9784;BME280;4931;44.874;-1.092;2023-08-08T07:00:38;101723.19;;;18.83;100.00
9784;BME280;4931;44.874;-1.092;2023-08-08T07:03:03;101724.84;;;18.84;100.00
9784;BME280;4931;44.874;-1.092;2023-08-08T07:05:29;101715.53;;;19.02;100.00
9784;BME280;4931;44.874;-1.092;2023-08-08T07:07:54;101721.06;;;19.16;100.00
9784;BME280;4931;44.874;-1.092;2023-08-08T07:10:20;101716.81;;;19.41;100.00
9784;BME280;4931;44.874;-1.092;2023-08-08T07:12:46;101720.88;;;19.67;100.00
9784;BME280;4931;44.874;-1.092;2023-08-08T07:15:11;101724.88;;;19.74;100.00
9784;BME280;4931;44.874;-1.092;2023-08-08T07:17:37;101712.56;;;20.38;100.00
9784;BME280;4931;44.874;-1.092;2023-08-08T07:20:03;101718.28;;;20.33;100.00
9784;BME280;4931;44.874;-1.092;2023-08-08T07:22:30;101700.13;;;20.53;100.00
9784;BME280;4931;44.874;-1.092;2023-08-08T07:24:58;101706.69;;;20.66;100.00
9784;BME280;4931;44.874;-1.092;2023-08-08T07:27:23;101705.44;;;20.99;100.00
9784;BME280;4931;44.874;-1.092;2023-08-08T07:29:49;101704.47;;;20.95;100.00
9784;BME280;4931;44.874;-1.092;2023-08-08T07:32:14;101699.47;;;21.44;100.00
9784;BME280;4931;44.874;-1.092;2023-08-08T07:34:40;101690.63;;;21.42;100.00
9784;BME280;4931;44.874;-1.092;2023-08-08T07:37:05;101685.34;;;21.67;100.00
9784;BME280;4931;44.874;-1.092;2023-08-08T07:39:31;101688.03;;;21.93;100.00
9784;BME280;4931;44.874;-1.092;2023-08-08T07:41:56;101682.81;;;21.83;100.00
9784;BME280;4931;44.874;-1.092;2023-08-08T07:44:22;101700.66;;;22.29;100.00
9784;BME280;4931;44.874;-1.092;2023-08-08T07:46:48;101698.66;;;22.30;100.00
9784;BME280;4931;44.874;-1.092;2023-08-08T07:49:14;101702.16;;;22.57;100.00
9784;BME280;4931;44.874;-1.092;2023-08-08T07:51:39;101700.34;;;22.82;100.00
9784;BME280;4931;44.874;-1.092;2023-08-08T07:54:05;101705.91;;;23.03;100.00
9784;BME280;4931;44.874;-1.092;2023-08-08T07:56:34;101694.88;;;23.07;100.00
9784;BME280;4931;44.874;-1.092;2023-08-08T07:59:00;101706.69;;;23.46;100.00
9784;BME280;4931;44.874;-1.092;2023-08-08T08:01:27;101708.66;;;23.45;100.00
9784;BME280;4931;44.874;-1.092;2023-08-08T08:03:52;101717.19;;;23.49;100.00
9784;BME280;4931;44.874;-1.092;2023-08-08T08:06:18;101695.50;;;23.46;100.00
9784;BME280;4931;44.874;-1.092;2023-08-08T08:08:43;101690.78;;;23.83;100.00
9784;BME280;4931;44.874;-1.092;2023-08-08T08:11:09;101688.66;;;23.68;100.00
9784;BME280;4931;44.874;-1.092;2023-08-08T08:13:34;101678.19;;;23.77;100.00
9784;BME280;4931;44.874;-1.092;2023-08-08T08:16:00;101677.84;;;23.91;100.00
9784;BME280;4931;44.874;-1.092;2023-08-08T08:18:25;101678.88;;;23.86;100.00
9784;BME280;4931;44.874;-1.092;2023-08-08T08:20:51;101682.75;;;24.19;100.00
9784;BME280;4931;44.874;-1.092;2023-08-08T08:23:16;101678.25;;;24.67;100.00
9784;BME280;4931;44.874;-1.092;2023-08-08T08:25:42;101672.84;;;24.87;100.00
9784;BME280;4931;44.874;-1.092;2023-08-08T08:28:07;101685.50;;;25.09;100.00
9784;BME280;4931;44.874;-1.092;2023-08-08T08:30:33;101683.16;;;25.11;100.00
9784;BME280;4931;44.874;-1.092;2023-08-08T08:32:58;101686.72;;;25.24;100.00
9784;BME280;4931;44.874;-1.092;2023-08-08T08:35:24;101691.13;;;25.38;100.00
9784;BME280;4931;44.874;-1.092;2023-08-08T08:37:50;101686.97;;;25.47;100.00
9784;BME280;4931;44.874;-1.092;2023-08-08T08:40:16;101675.75;;;25.63;100.00
9784;BME280;4931;44.874;-1.092;2023-08-08T08:42:43;101685.44;;;25.50;100.00
9784;BME280;4931;44.874;-1.092;2023-08-08T08:45:10;101685.75;;;25.77;100.00
9784;BME280;4931;44.874;-1.092;2023-08-08T08:47:37;101689.03;;;26.11;100.00
9784;BME280;4931;44.874;-1.092;2023-08-08T08:50:03;101683.00;;;25.96;100.00
9784;BME280;4931;44.874;-1.092;2023-08-08T08:52:29;101677.59;;;26.04;100.00
9784;BME280;4931;44.874;-1.092;2023-08-08T08:54:55;101681.28;;;26.08;100.00
9784;BME280;4931;44.874;-1.092;2023-08-08T08:57:22;101691.25;;;26.21;100.00
9784;BME280;4931;44.874;-1.092;2023-08-08T08:59:49;101672.53;;;26.29;100.00
9784;BME280;4931;44.874;-1.092;2023-08-08T09:02:15;101683.09;;;26.32;100.00
9784;BME280;4931;44.874;-1.092;2023-08-08T09:04:40;101686.53;;;26.25;100.00
9784;BME280;4931;44.874;-1.092;2023-08-08T09:07:07;101680.69;;;26.70;100.00
9784;BME280;4931;44.874;-1.092;2023-08-08T09:09:34;101688.94;;;26.78;100.00
9784;BME280;4931;44.874;-1.092;2023-08-08T09:12:01;101694.06;;;26.57;100.00
9784;BME280;4931;44.874;-1.092;2023-08-08T09:14:28;101692.44;;;26.91;100.00
9784;BME280;4931;44.874;-1.092;2023-08-08T09:16:54;101676.72;;;27.10;100.00
9784;BME280;4931;44.874;-1.092;2023-08-08T09:19:20;101677.75;;;27.21;100.00
9784;BME280;4931;44.874;-1.092;2023-08-08T09:21:47;101670.13;;;27.22;100.00
9784;BME280;4931;44.874;-1.092;2023-08-08T09:24:13;101673.16;;;27.13;100.00
9784;BME280;4931;44.874;-1.092;2023-08-08T09:26:39;101672.25;;;27.28;99.17
9784;BME280;4931;44.874;-1.092;2023-08-08T09:29:05;101684.69;;;27.27;97.76
9784;BME280;4931;44.874;-1.092;2023-08-08T09:31:31;101681.00;;;27.23;100.00
9784;BME280;4931;44.874;-1.092;2023-08-08T09:34:00;101682.31;;;27.49;100.00
9784;BME280;4931;44.874;-1.092;2023-08-08T09:36:26;101672.59;;;27.70;100.00
9784;BME280;4931;44.874;-1.092;2023-08-08T09:38:53;101669.78;;;27.70;96.63
9784;BME280;4931;44.874;-1.092;2023-08-08T09:41:20;101672.03;;;28.07;90.77
9784;BME280;4931;44.874;-1.092;2023-08-08T09:43:47;101665.91;;;27.78;96.04
9784;BME280;4931;44.874;-1.092;2023-08-08T09:46:13;101675.56;;;27.77;99.24
9784;BME280;4931;44.874;-1.092;2023-08-08T09:48:41;101677.19;;;27.78;99.28
9784;BME280;4931;44.874;-1.092;2023-08-08T09:51:07;101671.97;;;27.80;100.00
9784;BME280;4931;44.874;-1.092;2023-08-08T09:53:33;101667.00;;;27.96;97.77
9784;BME280;4931;44.874;-1.092;2023-08-08T09:56:00;101669.88;;;28.23;94.93
9784;BME280;4931;44.874;-1.092;2023-08-08T09:58:26;101668.34;;;28.29;93.01
9784;BME280;4931;44.874;-1.092;2023-08-08T10:00:52;101668.34;;;28.29;92.48
9784;BME280;4931;44.874;-1.092;2023-08-08T10:03:18;101655.44;;;28.28;89.28
9784;BME280;4931;44.874;-1.092;2023-08-08T10:05:45;101656.53;;;27.97;91.80
9784;BME280;4931;44.874;-1.092;2023-08-08T10:08:12;101656.31;;;28.06;91.40
9784;BME280;4931;44.874;-1.092;2023-08-08T10:10:41;101658.09;;;28.18;90.47
9784;BME280;4931;44.874;-1.092;2023-08-08T10:13:08;101657.69;;;27.92;90.57
9784;BME280;4931;44.874;-1.092;2023-08-08T10:15:37;101662.59;;;28.22;94.19
9784;BME280;4931;44.874;-1.092;2023-08-08T10:18:03;101648.16;;;28.27;94.31
9784;BME280;4931;44.874;-1.092;2023-08-08T10:20:31;101655.81;;;28.57;97.16
9784;BME280;4931;44.874;-1.092;2023-08-08T10:22:57;101645.31;;;28.54;88.51
9784;BME280;4931;44.874;-1.092;2023-08-08T10:25:26;101640.09;;;28.87;91.18
9784;BME280;4931;44.874;-1.092;2023-08-08T10:28:09;101639.22;;;28.82;84.81
9784;BME280;4931;44.874;-1.092;2023-08-08T10:33:15;101638.16;;;28.60;89.49
9784;BME280;4931;44.874;-1.092;2023-08-08T10:38:22;101648.56;;;28.56;89.41
9784;BME280;4931;44.874;-1.092;2023-08-08T10:40:47;101641.13;;;28.71;81.85
9784;BME280;4931;44.874;-1.092;2023-08-08T10:43:13;101638.47;;;29.23;85.24
9784;BME280;4931;44.874;-1.092;2023-08-08T10:45:41;101635.44;;;29.43;81.87
9784;BME280;4931;44.874;-1.092;2023-08-08T10:48:08;101635.38;;;29.80;82.48
9784;BME280;4931;44.874;-1.092;2023-08-08T10:50:39;101632.47;;;29.70;74.43
9784;BME280;4931;44.874;-1.092;2023-08-08T10:53:07;101632.75;;;29.57;77.10
9784;BME280;4931;44.874;-1.092;2023-08-08T10:55:37;101627.84;;;29.51;77.57
9784;BME280;4931;44.874;-1.092;2023-08-08T11:00:33;101625.88;;;29.13;78.95
9784;BME280;4931;44.874;-1.092;2023-08-08T11:03:00;101633.09;;;29.11;80.70
9784;BME280;4931;44.874;-1.092;2023-08-08T11:05:29;101630.06;;;29.27;77.13
9784;BME280;4931;44.874;-1.092;2023-08-08T11:07:56;101630.94;;;29.35;78.17
9784;BME280;4931;44.874;-1.092;2023-08-08T11:10:22;101623.84;;;29.52;73.62
9784;BME280;4931;44.874;-1.092;2023-08-08T11:12:56;101624.44;;;29.30;71.34
9784;BME280;4931;44.874;-1.092;2023-08-08T11:15:22;101627.78;;;29.40;74.41
9784;BME280;4931;44.874;-1.092;2023-08-08T11:17:48;101622.03;;;29.33;76.22
9784;BME280;4931;44.874;-1.092;2023-08-08T11:20:14;101625.44;;;29.49;73.37
9784;BME280;4931;44.874;-1.092;2023-08-08T11:22:40;101623.78;;;29.44;71.49
9784;BME280;4931;44.874;-1.092;2023-08-08T11:25:06;101620.66;;;30.09;75.99
9784;BME280;4931;44.874;-1.092;2023-08-08T11:27:33;101612.22;;;30.20;71.64
9784;BME280;4931;44.874;-1.092;2023-08-08T11:29:58;101610.38;;;30.49;73.17
9784;BME280;4931;44.874;-1.092;2023-08-08T11:32:25;101610.66;;;30.29;65.73
9784;BME280;4931;44.874;-1.092;2023-08-08T11:34:54;101608.91;;;30.00;64.55
9784;BME280;4931;44.874;-1.092;2023-08-08T11:37:19;101608.19;;;30.17;69.19
9784;BME280;4931;44.874;-1.092;2023-08-08T11:39:45;101610.56;;;30.15;70.75
9784;BME280;4931;44.874;-1.092;2023-08-08T11:42:11;101603.47;;;29.80;66.99
9784;BME280;4931;44.874;-1.092;2023-08-08T11:44:37;101591.84;;;29.89;68.14
9784;BME280;4931;44.874;-1.092;2023-08-08T11:47:02;101592.13;;;30.39;69.64
9784;BME280;4931;44.874;-1.092;2023-08-08T11:49:28;101582.44;;;30.44;64.94
9784;BME280;4931;44.874;-1.092;2023-08-08T11:51:54;101590.53;;;30.42;67.66
9784;BME280;4931;44.874;-1.092;2023-08-08T11:54:22;101591.66;;;30.26;64.59
9784;BME280;4931;44.874;-1.092;2023-08-08T11:56:47;101585.56;;;30.21;65.97
9784;BME280;4931;44.874;-1.092;2023-08-08T11:59:13;101591.13;;;30.03;69.34
9784;BME280;4931;44.874;-1.092;2023-08-08T12:01:41;101587.03;;;29.96;68.19
9784;BME280;4931;44.874;-1.092;2023-08-08T12:04:08;101577.38;;;30.01;68.40
9784;BME280;4931;44.874;-1.092;2023-08-08T12:06:37;101584.63;;;29.99;69.65
9784;BME280;4931;44.874;-1.092;2023-08-08T12:09:04;101588.09;;;30.40;65.91
9784;BME280;4931;44.874;-1.092;2023-08-08T12:11:34;101589.84;;;30.67;68.42
9784;BME280;4931;44.874;-1.092;2023-08-08T12:14:00;101583.03;;;30.05;65.89
9784;BME280;4931;44.874;-1.092;2023-08-08T12:16:28;101586.47;;;30.39;77.57
9784;BME280;4931;44.874;-1.092;2023-08-08T12:18:55;101582.50;;;30.58;83.42
9784;BME280;4931;44.874;-1.092;2023-08-08T12:21:21;101577.34;;;30.78;84.36
9784;BME280;4931;44.874;-1.092;2023-08-08T12:23:46;101575.41;;;31.22;87.26
9784;BME280;4931;44.874;-1.092;2023-08-08T12:26:12;101573.00;;;31.24;84.84
9784;BME280;4931;44.874;-1.092;2023-08-08T12:28:37;101574.59;;;31.18;79.38
9784;BME280;4931;44.874;-1.092;2023-08-08T12:31:03;101570.97;;;31.43;81.83
9784;BME280;4931;44.874;-1.092;2023-08-08T12:33:29;101563.25;;;31.33;80.90
9784;BME280;4931;44.874;-1.092;2023-08-08T12:35:54;101571.78;;;31.36;84.12
9784;BME280;4931;44.874;-1.092;2023-08-08T12:38:20;101568.09;;;31.36;84.97
9784;BME280;4931;44.874;-1.092;2023-08-08T12:40:45;101574.19;;;31.59;84.69
9784;BME280;4931;44.874;-1.092;2023-08-08T12:43:11;101566.06;;;31.58;88.11
9784;BME280;4931;44.874;-1.092;2023-08-08T12:45:39;101570.94;;;31.57;88.28
9784;BME280;4931;44.874;-1.092;2023-08-08T12:48:05;101571.34;;;31.23;87.09
9784;BME280;4931;44.874;-1.092;2023-08-08T12:50:31;101572.16;;;31.60;87.14
9784;BME280;4931;44.874;-1.092;2023-08-08T12:52:57;101572.09;;;30.84;83.51
9784;BME280;4931;44.874;-1.092;2023-08-08T12:55:22;101573.53;;;30.45;87.65
9784;BME280;4931;44.874;-1.092;2023-08-08T12:57:48;101572.66;;;30.23;87.92